WZZ562 EPWA-EPWR
Flight info
| Callsign | WZZ562 |
|---|---|
| Flight time | 0h 35m |
| Altitude | 22000 |
| Route | SOXER DCT VAMPU DCT BAXIS DCT UVIVI |
| Aircraft | A320/M-SDE3FGHIRWY/LB1 |
Departure
| Time | 2026-05-08 19:57 |
|---|---|
| Airport | Warsaw Chopin Airport (EPWA) |
Arrival
| Time | 2026-05-08 20:32 |
|---|---|
| Airport | Copernicus Wrocław Airport (EPWR) |
| Time | Latitude | Longitude | Altitude | Speed | Heading |
|---|---|---|---|---|---|
| 2026-05-08 19:36 | 52.17598 | 20.96324 | 339 ft | 0 kts | 242° |
| 2026-05-08 19:49 | 52.17598 | 20.96323 | 339 ft | 0 kts | 242° |
| 2026-05-08 19:49 | 52.17593 | 20.96308 | 312 ft | 5 kts | 242° |
| 2026-05-08 19:49 | 52.17588 | 20.96293 | 341 ft | 3 kts | 239° |
| 2026-05-08 19:50 | 52.17565 | 20.96268 | 338 ft | 5 kts | 199° |
| 2026-05-08 19:50 | 52.17521 | 20.96284 | 335 ft | 8 kts | 154° |
| 2026-05-08 19:50 | 52.17467 | 20.96329 | 333 ft | 10 kts | 153° |
| 2026-05-08 19:50 | 52.17399 | 20.96388 | 337 ft | 12 kts | 151° |
| 2026-05-08 19:51 | 52.17318 | 20.96460 | 335 ft | 14 kts | 151° |
| 2026-05-08 19:51 | 52.17222 | 20.96544 | 337 ft | 17 kts | 152° |
| 2026-05-08 19:51 | 52.17112 | 20.96640 | 337 ft | 19 kts | 152° |
| 2026-05-08 19:51 | 52.16987 | 20.96749 | 336 ft | 22 kts | 152° |
| 2026-05-08 19:52 | 52.16848 | 20.96870 | 339 ft | 24 kts | 152° |
| 2026-05-08 19:52 | 52.16716 | 20.96986 | 335 ft | 11 kts | 152° |
| 2026-05-08 19:52 | 52.16661 | 20.97058 | 337 ft | 11 kts | 115° |
| 2026-05-08 19:52 | 52.16625 | 20.97188 | 335 ft | 14 kts | 114° |
| 2026-05-08 19:53 | 52.16583 | 20.97341 | 336 ft | 16 kts | 114° |
| 2026-05-08 19:53 | 52.16534 | 20.97516 | 337 ft | 18 kts | 115° |
| 2026-05-08 19:53 | 52.16507 | 20.97611 | 335 ft | 7 kts | 116° |
| 2026-05-08 19:53 | 52.16482 | 20.97697 | 337 ft | 9 kts | 116° |
| 2026-05-08 19:54 | 52.16447 | 20.97789 | 336 ft | 9 kts | 142° |
| 2026-05-08 19:54 | 52.16380 | 20.97777 | 338 ft | 11 kts | 204° |
| 2026-05-08 19:54 | 52.16334 | 20.97744 | 334 ft | 6 kts | 204° |
| 2026-05-08 19:54 | 52.16303 | 20.97690 | 334 ft | 8 kts | 262° |
| 2026-05-08 19:55 | 52.16307 | 20.97666 | 337 ft | 0 kts | 290° |
| 2026-05-08 19:55 | 52.16308 | 20.97663 | 337 ft | 0 kts | 294° |
| 2026-05-08 19:56 | 52.16309 | 20.97659 | 336 ft | 3 kts | 294° |
| 2026-05-08 19:56 | 52.16402 | 20.97327 | 334 ft | 68 kts | 294° |
| 2026-05-08 19:56 | 52.16688 | 20.96309 | 338 ft | 125 kts | 294° |
| 2026-05-08 19:56 | 52.17110 | 20.94816 | 513 ft | 152 kts | 295° |
| 2026-05-08 19:57 | 52.17550 | 20.93248 | 1120 ft | 154 kts | 296° |
| 2026-05-08 19:57 | 52.17996 | 20.91636 | 1706 ft | 159 kts | 296° |
| 2026-05-08 19:57 | 52.18419 | 20.89949 | 2233 ft | 166 kts | 284° |
| 2026-05-08 19:57 | 52.18468 | 20.87938 | 2469 ft | 189 kts | 266° |
| 2026-05-08 19:58 | 52.18259 | 20.85704 | 2697 ft | 212 kts | 261° |
| 2026-05-08 19:58 | 52.17992 | 20.83158 | 2888 ft | 244 kts | 261° |
| 2026-05-08 19:58 | 52.17774 | 20.80296 | 3530 ft | 257 kts | 264° |
| 2026-05-08 19:58 | 52.17455 | 20.77440 | 4553 ft | 257 kts | 257° |
| 2026-05-08 19:59 | 52.16999 | 20.74617 | 5535 ft | 258 kts | 255° |
| 2026-05-08 19:59 | 52.16506 | 20.71787 | 6458 ft | 261 kts | 255° |
| 2026-05-08 19:59 | 52.16012 | 20.68919 | 7298 ft | 265 kts | 255° |
| 2026-05-08 19:59 | 52.15527 | 20.66008 | 8134 ft | 268 kts | 256° |
| 2026-05-08 20:00 | 52.15052 | 20.63054 | 8973 ft | 272 kts | 256° |
| 2026-05-08 20:00 | 52.14583 | 20.60043 | 9784 ft | 276 kts | 257° |
| 2026-05-08 20:00 | 52.14119 | 20.56989 | 10472 ft | 284 kts | 257° |
| 2026-05-08 20:00 | 52.13630 | 20.53741 | 10694 ft | 307 kts | 257° |
| 2026-05-08 20:01 | 52.13109 | 20.50285 | 11163 ft | 318 kts | 257° |
| 2026-05-08 20:01 | 52.12579 | 20.46773 | 11848 ft | 322 kts | 257° |
| 2026-05-08 20:01 | 52.12040 | 20.43211 | 12568 ft | 325 kts | 257° |
| 2026-05-08 20:01 | 52.11499 | 20.39626 | 13296 ft | 327 kts | 257° |
| 2026-05-08 20:02 | 52.10950 | 20.36016 | 14018 ft | 330 kts | 257° |
| 2026-05-08 20:02 | 52.10396 | 20.32377 | 14650 ft | 332 kts | 257° |
| 2026-05-08 20:02 | 52.09838 | 20.28724 | 15289 ft | 334 kts | 257° |
| 2026-05-08 20:02 | 52.09273 | 20.25048 | 15919 ft | 336 kts | 257° |
| 2026-05-08 20:03 | 52.08703 | 20.21343 | 16544 ft | 338 kts | 257° |
| 2026-05-08 20:03 | 52.08127 | 20.17621 | 17172 ft | 341 kts | 257° |
| 2026-05-08 20:03 | 52.07550 | 20.13875 | 17807 ft | 343 kts | 257° |
| 2026-05-08 20:03 | 52.06964 | 20.10099 | 18416 ft | 346 kts | 257° |
| 2026-05-08 20:04 | 52.06372 | 20.06301 | 18963 ft | 348 kts | 257° |
| 2026-05-08 20:04 | 52.05774 | 20.02478 | 19514 ft | 351 kts | 256° |
| 2026-05-08 20:04 | 52.05170 | 19.98624 | 20080 ft | 353 kts | 256° |
| 2026-05-08 20:04 | 52.04568 | 19.94750 | 20637 ft | 355 kts | 256° |
| 2026-05-08 20:05 | 52.03822 | 19.90908 | 21143 ft | 358 kts | 251° |
| 2026-05-08 20:05 | 52.02989 | 19.87066 | 21645 ft | 361 kts | 251° |
| 2026-05-08 20:05 | 52.02155 | 19.83209 | 22062 ft | 364 kts | 251° |
| 2026-05-08 20:05 | 52.01317 | 19.79343 | 22146 ft | 364 kts | 251° |
| 2026-05-08 20:06 | 52.00475 | 19.75464 | 22157 ft | 364 kts | 251° |
| 2026-05-08 20:06 | 51.99632 | 19.71597 | 22154 ft | 364 kts | 251° |
| 2026-05-08 20:06 | 51.98801 | 19.67792 | 22162 ft | 364 kts | 251° |
| 2026-05-08 20:06 | 51.97955 | 19.63917 | 22161 ft | 364 kts | 251° |
| 2026-05-08 20:07 | 51.97099 | 19.60000 | 22162 ft | 364 kts | 251° |
| 2026-05-08 20:07 | 51.96263 | 19.56193 | 22163 ft | 364 kts | 251° |
| 2026-05-08 20:07 | 51.95412 | 19.52327 | 22163 ft | 364 kts | 251° |
| 2026-05-08 20:07 | 51.94563 | 19.48462 | 22164 ft | 364 kts | 251° |
| 2026-05-08 20:08 | 51.93716 | 19.44600 | 22163 ft | 364 kts | 251° |
| 2026-05-08 20:08 | 51.92868 | 19.40748 | 22166 ft | 364 kts | 251° |
| 2026-05-08 20:08 | 51.92015 | 19.36884 | 22167 ft | 364 kts | 251° |
| 2026-05-08 20:08 | 51.91161 | 19.33024 | 22165 ft | 364 kts | 251° |
| 2026-05-08 20:09 | 51.90308 | 19.29169 | 22164 ft | 364 kts | 251° |
| 2026-05-08 20:09 | 51.89449 | 19.25314 | 22167 ft | 364 kts | 251° |
| 2026-05-08 20:09 | 51.88586 | 19.21461 | 22168 ft | 364 kts | 251° |
| 2026-05-08 20:09 | 51.87721 | 19.17614 | 22165 ft | 364 kts | 251° |
| 2026-05-08 20:10 | 51.86855 | 19.13765 | 22165 ft | 364 kts | 251° |
| 2026-05-08 20:10 | 51.85992 | 19.09911 | 22166 ft | 364 kts | 251° |
| 2026-05-08 20:10 | 51.85139 | 19.06044 | 22168 ft | 365 kts | 251° |
| 2026-05-08 20:10 | 51.84299 | 19.02178 | 22169 ft | 365 kts | 251° |
| 2026-05-08 20:11 | 51.83465 | 18.98307 | 22168 ft | 365 kts | 252° |
| 2026-05-08 20:11 | 51.82623 | 18.94433 | 22167 ft | 365 kts | 251° |
| 2026-05-08 20:11 | 51.81773 | 18.90571 | 22173 ft | 365 kts | 251° |
| 2026-05-08 20:11 | 51.80920 | 18.86708 | 22173 ft | 365 kts | 251° |
| 2026-05-08 20:12 | 51.80067 | 18.82847 | 22172 ft | 365 kts | 251° |
| 2026-05-08 20:12 | 51.79491 | 18.80238 | 22174 ft | 365 kts | 251° |
| 2026-05-08 20:12 | 51.78649 | 18.76426 | 22172 ft | 365 kts | 251° |
| 2026-05-08 20:12 | 51.77797 | 18.72565 | 22171 ft | 365 kts | 251° |
| 2026-05-08 20:13 | 51.76941 | 18.68701 | 22179 ft | 365 kts | 251° |
| 2026-05-08 20:13 | 51.76086 | 18.64842 | 22175 ft | 365 kts | 251° |
| 2026-05-08 20:13 | 51.75232 | 18.60984 | 22176 ft | 365 kts | 251° |
| 2026-05-08 20:13 | 51.74374 | 18.57120 | 22178 ft | 366 kts | 251° |
| 2026-05-08 20:14 | 51.73511 | 18.53258 | 22178 ft | 366 kts | 251° |
| 2026-05-08 20:14 | 51.72669 | 18.49519 | 22180 ft | 366 kts | 251° |
| 2026-05-08 20:14 | 51.71799 | 18.45661 | 22181 ft | 366 kts | 251° |
| 2026-05-08 20:14 | 51.70933 | 18.41811 | 22181 ft | 366 kts | 251° |
| 2026-05-08 20:15 | 51.70064 | 18.37946 | 22180 ft | 366 kts | 251° |
| 2026-05-08 20:15 | 51.69194 | 18.34092 | 22181 ft | 366 kts | 251° |
| 2026-05-08 20:15 | 51.68332 | 18.30293 | 22057 ft | 356 kts | 251° |
| 2026-05-08 20:15 | 51.67493 | 18.26607 | 21784 ft | 347 kts | 251° |
| 2026-05-08 20:16 | 51.66666 | 18.22966 | 21333 ft | 344 kts | 251° |
| 2026-05-08 20:16 | 51.65847 | 18.19361 | 20926 ft | 340 kts | 251° |
| 2026-05-08 20:16 | 51.65041 | 18.15811 | 20527 ft | 336 kts | 251° |
| 2026-05-08 20:16 | 51.64239 | 18.12291 | 20120 ft | 333 kts | 251° |
| 2026-05-08 20:17 | 51.63442 | 18.08807 | 19734 ft | 330 kts | 251° |
| 2026-05-08 20:17 | 51.62651 | 18.05355 | 19341 ft | 327 kts | 251° |
| 2026-05-08 20:17 | 51.61866 | 18.01939 | 18955 ft | 325 kts | 251° |
| 2026-05-08 20:17 | 51.61084 | 17.98534 | 18576 ft | 322 kts | 250° |
| 2026-05-08 20:18 | 51.60310 | 17.95170 | 18155 ft | 320 kts | 250° |
| 2026-05-08 20:18 | 51.59533 | 17.91838 | 17749 ft | 317 kts | 248° |
| 2026-05-08 20:18 | 51.58463 | 17.88751 | 17345 ft | 316 kts | 235° |
| 2026-05-08 20:18 | 51.56963 | 17.86172 | 16948 ft | 317 kts | 221° |
| 2026-05-08 20:19 | 51.55219 | 17.84020 | 16545 ft | 316 kts | 219° |
| 2026-05-08 20:19 | 51.53469 | 17.81893 | 16153 ft | 314 kts | 219° |
| 2026-05-08 20:19 | 51.51727 | 17.79776 | 15753 ft | 313 kts | 219° |
| 2026-05-08 20:19 | 51.49995 | 17.77667 | 15369 ft | 312 kts | 220° |
| 2026-05-08 20:20 | 51.48274 | 17.75562 | 14984 ft | 311 kts | 220° |
| 2026-05-08 20:20 | 51.46575 | 17.73483 | 14600 ft | 311 kts | 220° |
| 2026-05-08 20:20 | 51.44857 | 17.71383 | 14216 ft | 310 kts | 219° |
| 2026-05-08 20:20 | 51.43139 | 17.69288 | 13806 ft | 310 kts | 219° |
| 2026-05-08 20:21 | 51.41426 | 17.67202 | 13404 ft | 309 kts | 219° |
| 2026-05-08 20:21 | 51.39716 | 17.65123 | 13014 ft | 308 kts | 219° |
| 2026-05-08 20:21 | 51.38016 | 17.63063 | 12635 ft | 306 kts | 219° |
| 2026-05-08 20:21 | 51.36319 | 17.61014 | 12254 ft | 305 kts | 219° |
| 2026-05-08 20:22 | 51.34623 | 17.58967 | 11864 ft | 305 kts | 219° |
| 2026-05-08 20:22 | 51.32929 | 17.56921 | 11488 ft | 305 kts | 219° |
| 2026-05-08 20:22 | 51.31158 | 17.55056 | 11022 ft | 309 kts | 205° |
| 2026-05-08 20:22 | 51.28993 | 17.54506 | 10187 ft | 326 kts | 180° |
| 2026-05-08 20:23 | 51.26766 | 17.54199 | 10006 ft | 315 kts | 198° |
| 2026-05-08 20:23 | 51.24805 | 17.52796 | 9859 ft | 304 kts | 211° |
| 2026-05-08 20:23 | 51.23047 | 17.51024 | 9735 ft | 295 kts | 214° |
| 2026-05-08 20:23 | 51.21350 | 17.49267 | 9577 ft | 288 kts | 214° |
| 2026-05-08 20:24 | 51.19679 | 17.47538 | 9244 ft | 287 kts | 214° |
| 2026-05-08 20:24 | 51.17970 | 17.45923 | 8971 ft | 285 kts | 208° |
| 2026-05-08 20:24 | 51.16166 | 17.44603 | 8639 ft | 284 kts | 204° |
| 2026-05-08 20:24 | 51.14340 | 17.43433 | 8364 ft | 282 kts | 202° |
| 2026-05-08 20:25 | 51.12505 | 17.42302 | 8047 ft | 282 kts | 202° |
| 2026-05-08 20:25 | 51.10687 | 17.41172 | 7751 ft | 280 kts | 203° |
| 2026-05-08 20:25 | 51.08884 | 17.40024 | 7470 ft | 279 kts | 204° |
| 2026-05-08 20:25 | 51.07094 | 17.38863 | 7188 ft | 277 kts | 204° |
| 2026-05-08 20:26 | 51.05313 | 17.37693 | 6912 ft | 276 kts | 204° |
| 2026-05-08 20:26 | 51.03571 | 17.36443 | 6626 ft | 275 kts | 207° |
| 2026-05-08 20:26 | 51.01887 | 17.34977 | 6121 ft | 279 kts | 218° |
| 2026-05-08 20:26 | 51.00538 | 17.32823 | 5912 ft | 272 kts | 235° |
| 2026-05-08 20:27 | 50.99662 | 17.30241 | 5750 ft | 263 kts | 251° |
| 2026-05-08 20:27 | 50.99275 | 17.27436 | 5523 ft | 259 kts | 266° |
| 2026-05-08 20:27 | 50.99378 | 17.24634 | 5238 ft | 258 kts | 282° |
| 2026-05-08 20:27 | 50.99959 | 17.21955 | 4924 ft | 257 kts | 296° |
| 2026-05-08 20:28 | 51.00754 | 17.19401 | 4563 ft | 259 kts | 296° |
| 2026-05-08 20:28 | 51.01553 | 17.16841 | 4209 ft | 260 kts | 296° |
| 2026-05-08 20:28 | 51.02354 | 17.14258 | 3849 ft | 261 kts | 296° |
| 2026-05-08 20:28 | 51.03148 | 17.11693 | 3501 ft | 255 kts | 297° |
| 2026-05-08 20:29 | 51.03914 | 17.09217 | 3156 ft | 245 kts | 297° |
| 2026-05-08 20:29 | 51.04637 | 17.06874 | 2837 ft | 225 kts | 297° |
| 2026-05-08 20:29 | 51.05297 | 17.04735 | 2547 ft | 207 kts | 297° |
| 2026-05-08 20:29 | 51.05915 | 17.02733 | 2267 ft | 198 kts | 297° |
| 2026-05-08 20:30 | 51.06509 | 17.00807 | 2026 ft | 188 kts | 297° |
| 2026-05-08 20:30 | 51.07063 | 16.99012 | 1773 ft | 172 kts | 297° |
| 2026-05-08 20:30 | 51.07553 | 16.97417 | 1518 ft | 151 kts | 297° |
| 2026-05-08 20:30 | 51.08001 | 16.95962 | 1315 ft | 144 kts | 297° |
| 2026-05-08 20:31 | 51.08437 | 16.94547 | 1103 ft | 141 kts | 297° |
| 2026-05-08 20:31 | 51.08865 | 16.93155 | 911 ft | 140 kts | 297° |
| 2026-05-08 20:31 | 51.09292 | 16.91765 | 719 ft | 140 kts | 297° |
| 2026-05-08 20:31 | 51.09718 | 16.90378 | 525 ft | 140 kts | 297° |
| 2026-05-08 20:32 | 51.10139 | 16.89006 | 410 ft | 130 kts | 298° |
| 2026-05-08 20:32 | 51.10480 | 16.87896 | 400 ft | 88 kts | 295° |
| 2026-05-08 20:32 | 51.10655 | 16.87326 | 399 ft | 19 kts | 296° |
| 2026-05-08 20:32 | 51.10711 | 16.87239 | 404 ft | 11 kts | 359° |
| 2026-05-08 20:33 | 51.10789 | 16.87299 | 403 ft | 14 kts | 28° |
| 2026-05-08 20:33 | 51.10877 | 16.87372 | 403 ft | 14 kts | 26° |
| 2026-05-08 20:33 | 51.10952 | 16.87444 | 403 ft | 6 kts | 62° |
| 2026-05-08 20:33 | 51.10940 | 16.87505 | 403 ft | 0 kts | 119° |
| 2026-05-08 20:34 | 51.10939 | 16.87509 | 400 ft | 1 kts | 119° |
| 2026-05-08 20:34 | 51.10926 | 16.87550 | 403 ft | 4 kts | 113° |
| 2026-05-08 20:34 | 51.10977 | 16.87615 | 403 ft | 3 kts | 26° |
| 2026-05-08 20:35 | 51.10983 | 16.87619 | 403 ft | 0 kts | 26° |